createdAt,value
2023-03-21T00:02:13.197Z,101765.31
2023-03-21T00:04:51.269Z,101800.25
2023-03-21T00:07:20.997Z,101785.16
2023-03-21T00:09:49.406Z,101790.03
2023-03-21T00:12:21.017Z,101790.63
2023-03-21T00:14:50.788Z,101779.97
2023-03-21T00:17:22.363Z,101784.78
2023-03-21T00:19:51.632Z,101753.66
2023-03-21T00:22:19.999Z,101778.75
2023-03-21T00:24:48.318Z,101773.31
2023-03-21T00:27:42.634Z,101745.06
2023-03-21T00:30:08.042Z,101753.91
2023-03-21T00:32:42.827Z,101782.66
2023-03-21T00:35:53.103Z,101781.94
2023-03-21T00:38:08.478Z,101768.81
2023-03-21T00:40:40.848Z,101760.81
2023-03-21T00:43:17.717Z,101737.59
2023-03-21T00:45:47.927Z,101725.00
2023-03-21T00:48:19.115Z,101737.75
2023-03-21T00:50:48.092Z,101749.69
2023-03-21T00:53:16.912Z,101748.22
2023-03-21T00:55:45.402Z,101723.06
2023-03-21T00:58:13.753Z,101750.50
2023-03-21T01:00:42.275Z,101744.97
2023-03-21T01:03:24.392Z,101707.81
2023-03-21T01:06:07.904Z,101740.66
2023-03-21T01:08:50.999Z,101738.72
2023-03-21T01:11:23.710Z,101739.31
2023-03-21T01:13:59.832Z,101736.50
2023-03-21T01:16:36.501Z,101724.94
2023-03-21T01:19:22.076Z,101676.41
2023-03-21T01:21:53.205Z,101700.88
2023-03-21T01:24:22.063Z,101697.94
2023-03-21T01:26:50.883Z,101704.38
2023-03-21T01:29:19.376Z,101691.06
2023-03-21T01:31:47.961Z,101681.06
2023-03-21T01:34:17.814Z,101716.03
2023-03-21T01:36:46.751Z,101701.31
2023-03-21T01:39:19.297Z,101701.19
2023-03-21T01:41:50.578Z,101698.66
2023-03-21T01:44:31.051Z,101667.13
2023-03-21T01:47:10.284Z,101694.44
2023-03-21T01:49:53.475Z,101689.91
2023-03-21T01:52:37.108Z,101685.06
2023-03-21T01:55:17.393Z,101689.06
2023-03-21T01:58:07.426Z,101686.50
2023-03-21T02:01:09.095Z,101682.88
2023-03-21T02:03:51.442Z,101681.47
2023-03-21T02:06:50.742Z,101681.50
2023-03-21T02:09:46.315Z,101654.78
2023-03-21T02:12:18.755Z,101675.34
2023-03-21T02:14:50.903Z,101663.72
2023-03-21T02:17:39.378Z,101671.28
2023-03-21T02:21:04.227Z,101642.50
2023-03-21T02:24:23.362Z,101657.50
2023-03-21T02:27:09.931Z,101643.63
2023-03-21T02:30:50.804Z,101654.19
2023-03-21T02:34:06.522Z,101645.16
2023-03-21T02:36:57.046Z,101648.34
2023-03-21T02:39:30.649Z,101625.84
2023-03-21T02:42:08.394Z,101625.50
2023-03-21T02:44:45.056Z,101639.44
2023-03-21T02:47:21.117Z,101628.31
2023-03-21T02:49:55.971Z,101607.47
2023-03-21T02:52:38.535Z,101589.41
2023-03-21T02:55:15.594Z,101597.31
2023-03-21T02:58:13.824Z,101630.19
2023-03-21T03:00:48.630Z,101622.47
2023-03-21T03:03:34.553Z,101623.75
2023-03-21T03:06:17.124Z,101624.31
2023-03-21T03:09:08.445Z,101576.38
2023-03-21T03:11:40.003Z,101621.19
2023-03-21T03:14:53.098Z,101596.56
2023-03-21T03:17:47.972Z,101595.47
2023-03-21T03:20:27.264Z,101589.16
2023-03-21T03:23:16.146Z,101575.44
2023-03-21T03:25:52.513Z,101613.28
2023-03-21T03:28:27.462Z,101624.69
2023-03-21T03:31:09.254Z,101619.47
2023-03-21T03:33:52.128Z,101626.66
2023-03-21T03:36:32.201Z,101613.19
2023-03-21T03:39:09.025Z,101604.34
2023-03-21T03:44:40.534Z,101581.75
2023-03-21T03:47:26.257Z,101605.06
2023-03-21T03:50:09.890Z,101591.72
2023-03-21T03:52:55.258Z,101571.25
2023-03-21T03:55:28.450Z,101569.66
2023-03-21T03:58:13.187Z,101511.00
2023-03-21T04:00:49.468Z,101474.75
2023-03-21T04:03:18.576Z,101453.97
2023-03-21T04:05:47.428Z,101478.94
2023-03-21T04:08:18.122Z,101564.91
2023-03-21T04:10:51.999Z,101505.03
2023-03-21T04:13:22.775Z,101577.22
2023-03-21T04:16:13.407Z,101581.59
2023-03-21T04:18:43.597Z,101562.91
2023-03-21T04:21:14.589Z,101567.97
2023-03-21T04:23:43.896Z,101542.59
2023-03-21T04:26:12.739Z,101448.06
2023-03-21T04:28:50.540Z,101563.22
2023-03-21T04:31:36.154Z,101463.22
2023-03-21T04:34:12.765Z,101497.75
2023-03-21T04:36:47.270Z,101374.41
2023-03-21T04:39:16.836Z,101545.81
2023-03-21T04:41:49.847Z,101526.59
2023-03-21T04:44:20.074Z,101523.16
2023-03-21T04:46:48.681Z,101551.41
2023-03-21T04:49:18.501Z,101542.03
2023-03-21T04:51:47.022Z,101421.56
2023-03-21T04:54:21.125Z,101447.41
2023-03-21T04:56:49.509Z,101503.84
2023-03-21T04:59:20.089Z,101366.03
2023-03-21T05:01:50.117Z,101535.72
2023-03-21T05:04:19.438Z,101479.16
2023-03-21T05:06:47.936Z,101538.09
2023-03-21T05:09:17.980Z,101530.50
2023-03-21T05:11:46.609Z,101514.78
2023-03-21T05:14:20.871Z,101536.25
2023-03-21T05:16:53.488Z,101527.56
2023-03-21T05:19:24.735Z,101520.97
2023-03-21T05:21:54.006Z,101495.97
2023-03-21T05:24:26.721Z,101528.81
2023-03-21T05:26:56.511Z,101527.28
2023-03-21T05:29:32.057Z,101534.72
2023-03-21T05:32:04.373Z,101442.50
2023-03-21T05:34:33.433Z,101527.69
2023-03-21T05:37:02.429Z,101528.25
2023-03-21T05:39:51.830Z,101540.59
2023-03-21T05:42:30.792Z,101531.75
2023-03-21T05:45:01.118Z,101534.44
2023-03-21T05:47:32.662Z,101533.31
2023-03-21T05:50:02.258Z,101525.06
2023-03-21T05:52:32.165Z,101526.13
2023-03-21T05:55:01.377Z,101531.78
2023-03-21T05:57:29.970Z,101503.50
2023-03-21T06:00:09.391Z,101518.53
2023-03-21T06:02:56.193Z,101527.84
2023-03-21T06:05:38.635Z,101535.56
2023-03-21T06:08:10.274Z,101497.25
2023-03-21T06:10:38.834Z,101533.34
2023-03-21T06:13:07.455Z,101540.63
2023-03-21T06:15:37.525Z,101528.25
2023-03-21T06:18:12.461Z,101532.47
2023-03-21T06:20:45.531Z,101532.75
2023-03-21T06:23:14.002Z,101533.47
2023-03-21T06:25:42.499Z,101535.59
2023-03-21T06:28:10.922Z,101501.59
2023-03-21T06:30:43.648Z,101518.16
2023-03-21T06:33:20.082Z,101518.72
2023-03-21T06:35:54.038Z,101545.41
2023-03-21T06:38:24.226Z,101488.81
2023-03-21T06:40:55.801Z,101515.78
2023-03-21T06:46:02.310Z,101524.91
2023-03-21T06:48:30.932Z,101394.44
2023-03-21T06:50:59.954Z,101551.97
2023-03-21T06:53:30.748Z,101558.78
2023-03-21T06:56:16.176Z,101524.19
2023-03-21T06:58:46.716Z,101556.91
2023-03-21T07:01:32.586Z,101557.19
2023-03-21T07:04:06.570Z,101560.72
2023-03-21T07:06:36.148Z,101497.78
2023-03-21T07:09:06.110Z,101526.47
2023-03-21T07:11:38.218Z,101524.97
2023-03-21T07:14:07.755Z,101546.25
2023-03-21T07:16:37.640Z,101507.63
2023-03-21T07:19:06.028Z,101493.72
2023-03-21T07:21:34.359Z,101557.94
2023-03-21T07:24:02.692Z,101546.34
2023-03-21T07:26:31.056Z,101550.31
2023-03-21T07:29:00.766Z,101535.34
2023-03-21T07:31:29.656Z,101532.47
2023-03-21T07:33:59.685Z,101529.09
2023-03-21T07:36:28.223Z,101467.75
2023-03-21T07:38:56.634Z,101477.69
2023-03-21T07:41:26.162Z,101468.03
2023-03-21T07:43:54.539Z,101456.25
2023-03-21T07:46:22.877Z,101508.91
2023-03-21T07:48:51.240Z,101497.13
2023-03-21T07:51:20.931Z,101524.16
2023-03-21T07:53:49.480Z,101520.66
2023-03-21T07:56:17.831Z,101486.72
2023-03-21T07:58:46.225Z,101520.50
2023-03-21T08:01:14.621Z,101490.91
2023-03-21T08:03:43.544Z,101493.53
2023-03-21T08:06:12.448Z,101511.88
2023-03-21T08:08:42.215Z,101509.84
2023-03-21T08:11:12.313Z,101512.13
2023-03-21T08:13:40.929Z,101511.38
2023-03-21T08:16:12.718Z,101499.16
2023-03-21T08:18:42.801Z,101490.41
2023-03-21T08:21:11.467Z,101446.38
2023-03-21T08:23:42.623Z,101487.69
2023-03-21T08:26:11.419Z,101481.53
2023-03-21T08:28:41.602Z,101479.34
2023-03-21T08:31:12.303Z,101469.09
2023-03-21T08:33:40.856Z,101475.94
2023-03-21T08:36:11.862Z,101466.53
2023-03-21T08:38:40.555Z,101473.25
2023-03-21T08:41:10.643Z,101463.22
2023-03-21T08:43:39.003Z,101470.78
2023-03-21T08:46:08.309Z,101464.69
2023-03-21T08:48:38.789Z,101459.72
2023-03-21T08:51:07.587Z,101470.50
2023-03-21T08:53:36.008Z,101462.47
2023-03-21T08:56:04.396Z,101445.81
2023-03-21T08:58:34.078Z,101395.19
2023-03-21T09:01:02.436Z,101471.34
2023-03-21T09:03:30.752Z,101467.34
2023-03-21T09:05:59.844Z,101459.88
2023-03-21T09:08:28.232Z,101464.50
2023-03-21T09:10:57.992Z,101454.75
2023-03-21T09:13:26.722Z,101390.56
2023-03-21T09:15:58.306Z,101442.06
2023-03-21T09:18:39.028Z,101431.13
2023-03-21T09:21:12.826Z,101409.09
2023-03-21T09:23:41.706Z,101407.69
2023-03-21T09:26:10.574Z,101435.44
2023-03-21T09:28:39.239Z,101438.91
2023-03-21T09:31:11.911Z,101395.66
2023-03-21T09:33:41.481Z,101409.66
2023-03-21T09:36:14.173Z,101429.22
2023-03-21T09:38:45.657Z,101431.47
2023-03-21T09:41:33.579Z,101435.41
2023-03-21T09:44:19.935Z,101434.41
2023-03-21T09:46:55.003Z,101433.03
2023-03-21T09:49:31.102Z,101408.50
2023-03-21T09:52:03.652Z,101398.69
2023-03-21T09:54:37.006Z,101430.13
2023-03-21T09:57:16.075Z,101425.84
2023-03-21T09:59:44.916Z,101425.69
2023-03-21T10:02:36.746Z,101425.28
2023-03-21T10:05:17.730Z,101392.91
2023-03-21T10:07:54.284Z,101412.91
2023-03-21T10:10:29.803Z,101375.69
2023-03-21T10:12:58.524Z,101391.25
2023-03-21T10:15:28.028Z,101376.38
2023-03-21T10:18:02.135Z,101419.22
2023-03-21T10:20:33.679Z,101412.88
2023-03-21T10:23:06.722Z,101405.25
2023-03-21T10:25:38.547Z,101423.13
2023-03-21T10:28:10.671Z,101411.19
2023-03-21T10:30:43.543Z,101394.38
2023-03-21T10:33:20.634Z,101368.63
2023-03-21T10:35:53.724Z,101409.97
2023-03-21T10:38:25.829Z,101407.13
2023-03-21T10:40:54.950Z,101365.44
2023-03-21T10:43:37.949Z,101377.78
2023-03-21T10:46:12.528Z,101420.84
2023-03-21T10:48:47.070Z,101356.50
2023-03-21T10:51:21.015Z,101378.72
2023-03-21T10:53:55.088Z,101399.38
2023-03-21T10:56:27.686Z,101401.50
2023-03-21T10:58:59.248Z,101403.19
2023-03-21T11:01:32.888Z,101376.22
2023-03-21T11:04:09.553Z,101380.72
2023-03-21T11:06:42.430Z,101379.41
2023-03-21T11:09:16.816Z,101317.38
2023-03-21T11:11:53.634Z,101390.47
2023-03-21T11:14:44.735Z,101394.66
2023-03-21T11:17:24.752Z,101394.16
2023-03-21T11:19:58.538Z,101401.75
2023-03-21T11:22:31.026Z,101379.44
2023-03-21T11:25:03.708Z,101380.50
2023-03-21T11:27:33.316Z,101390.28
2023-03-21T11:30:05.309Z,101394.97
2023-03-21T11:32:37.352Z,101364.94
2023-03-21T11:35:15.159Z,101370.59
2023-03-21T11:37:47.757Z,101361.72
2023-03-21T11:40:25.659Z,101342.63
2023-03-21T11:42:57.305Z,101339.47
2023-03-21T11:45:28.200Z,101372.69
2023-03-21T11:47:59.505Z,101354.06
2023-03-21T11:50:36.335Z,101390.78
2023-03-21T11:53:26.667Z,101385.13
2023-03-21T11:56:11.737Z,101393.34
2023-03-21T11:58:57.191Z,101370.69
2023-03-21T12:01:35.200Z,101359.44
2023-03-21T12:04:22.525Z,101354.41
2023-03-21T12:06:57.668Z,101377.25
2023-03-21T12:09:38.475Z,101378.75
2023-03-21T12:12:39.091Z,101366.34
2023-03-21T12:15:19.009Z,101350.22
2023-03-21T12:18:00.321Z,101362.19
2023-03-21T12:20:40.882Z,101349.94
2023-03-21T12:23:43.363Z,101352.25
2023-03-21T12:26:24.928Z,101320.97
2023-03-21T12:29:15.221Z,101354.28
2023-03-21T12:31:58.013Z,101330.25
2023-03-21T12:35:09.063Z,101358.16
2023-03-21T12:37:47.813Z,101325.66
2023-03-21T12:40:33.965Z,101332.19
2023-03-21T12:43:32.915Z,101313.47
2023-03-21T12:46:05.190Z,101340.25
2023-03-21T12:48:45.071Z,101339.75
2023-03-21T12:51:16.949Z,101338.66
2023-03-21T12:53:59.376Z,101313.34
2023-03-21T12:56:35.353Z,101306.88
2023-03-21T12:59:15.293Z,101283.59
2023-03-21T13:01:45.423Z,101290.94
2023-03-21T13:04:36.703Z,101321.56
2023-03-21T13:07:10.529Z,101307.13
2023-03-21T13:09:40.897Z,101318.72
2023-03-21T13:12:32.108Z,101317.50
2023-03-21T13:15:28.397Z,101320.31
2023-03-21T13:18:05.878Z,101315.03
2023-03-21T13:20:43.867Z,101317.44
2023-03-21T13:23:13.570Z,101309.59
2023-03-21T13:25:47.040Z,101304.09
2023-03-21T13:28:23.214Z,101304.69
2023-03-21T13:30:52.201Z,101294.16
2023-03-21T13:33:26.306Z,101253.50
2023-03-21T13:36:05.586Z,101267.75
2023-03-21T13:38:36.501Z,101259.72
2023-03-21T13:41:12.996Z,101264.59
2023-03-21T13:43:46.446Z,101271.88
2023-03-21T13:46:16.947Z,101267.06
2023-03-21T13:49:00.175Z,101291.31
2023-03-21T13:51:48.000Z,101235.78
2023-03-21T13:54:27.462Z,101254.59
2023-03-21T13:57:01.374Z,101247.88
2023-03-21T13:59:44.309Z,101275.88
2023-03-21T14:02:29.356Z,101243.28
2023-03-21T14:05:06.051Z,101241.69
2023-03-21T14:07:36.873Z,101275.84
2023-03-21T14:10:18.596Z,101247.59
2023-03-21T14:12:48.595Z,101245.34
2023-03-21T14:15:24.124Z,101255.78
2023-03-21T14:17:55.474Z,101264.19
2023-03-21T14:20:27.650Z,101226.34
2023-03-21T14:22:56.879Z,101233.66
2023-03-21T14:25:37.155Z,101233.56
2023-03-21T14:28:16.839Z,101263.47
2023-03-21T14:30:51.157Z,101240.22
2023-03-21T14:33:36.645Z,101231.00
2023-03-21T14:36:11.742Z,101246.13
2023-03-21T14:38:42.314Z,101271.09
2023-03-21T14:41:24.442Z,101272.09
2023-03-21T14:44:22.374Z,101258.06
2023-03-21T14:46:54.053Z,101248.50
2023-03-21T14:49:35.789Z,101264.34
2023-03-21T14:52:09.800Z,101249.47
2023-03-21T14:54:41.847Z,101259.41
2023-03-21T14:57:14.804Z,101253.34
2023-03-21T14:59:43.880Z,101241.94
2023-03-21T15:02:20.414Z,101222.31
2023-03-21T15:04:53.704Z,101252.59
2023-03-21T15:07:28.849Z,101243.09
2023-03-21T15:10:00.925Z,101221.50
2023-03-21T15:12:29.742Z,101245.31
2023-03-21T15:14:59.551Z,101243.75
2023-03-21T15:17:30.633Z,101216.63
2023-03-21T15:19:59.136Z,101229.34
2023-03-21T15:22:34.237Z,101187.91
2023-03-21T15:25:07.601Z,101218.69
2023-03-21T15:27:41.347Z,101227.75
2023-03-21T15:30:23.948Z,101218.72
2023-03-21T15:32:54.290Z,101211.53
2023-03-21T15:35:28.372Z,101240.34
2023-03-21T15:37:58.663Z,101212.22
2023-03-21T15:40:29.938Z,101242.84
2023-03-21T15:43:16.356Z,101256.25
2023-03-21T15:45:50.027Z,101248.38
2023-03-21T15:48:26.482Z,101246.03
2023-03-21T15:51:02.721Z,101218.91
2023-03-21T15:53:34.417Z,101274.34
2023-03-21T15:56:06.135Z,101261.94
2023-03-21T15:58:37.731Z,101290.31
2023-03-21T16:01:09.644Z,101296.38
2023-03-21T16:03:46.614Z,101275.81
2023-03-21T16:06:21.937Z,101282.88
2023-03-21T16:08:53.377Z,101275.66
2023-03-21T16:11:28.453Z,101289.78
2023-03-21T16:13:57.817Z,101289.91
2023-03-21T16:16:29.210Z,101291.06
2023-03-21T16:19:02.150Z,101293.09
2023-03-21T16:21:34.240Z,101257.75
2023-03-21T16:24:03.244Z,101270.56
2023-03-21T16:26:35.091Z,101242.28
2023-03-21T16:29:03.681Z,101256.19
2023-03-21T16:31:36.883Z,101252.97
2023-03-21T16:34:07.144Z,101269.50
2023-03-21T16:36:39.252Z,101262.91
2023-03-21T16:39:19.619Z,101264.09
2023-03-21T16:41:48.922Z,101267.09
2023-03-21T16:44:17.452Z,101261.16
2023-03-21T16:46:47.173Z,101251.25
2023-03-21T16:49:27.119Z,101248.50
2023-03-21T16:51:57.150Z,101242.00
2023-03-21T16:54:25.977Z,101255.75
2023-03-21T16:56:58.804Z,101218.72
2023-03-21T16:59:27.774Z,101231.47
2023-03-21T17:01:56.533Z,101232.22
2023-03-21T17:04:26.873Z,101233.38
2023-03-21T17:06:56.400Z,101246.63
2023-03-21T17:09:27.961Z,101247.50
2023-03-21T17:11:56.449Z,101234.91
2023-03-21T17:14:25.486Z,101187.66
2023-03-21T17:16:55.267Z,101241.09
2023-03-21T17:19:26.452Z,101238.50
2023-03-21T17:21:55.283Z,101244.84
2023-03-21T17:24:26.051Z,101255.53
2023-03-21T17:26:54.445Z,101249.78
2023-03-21T17:29:22.789Z,101221.56
2023-03-21T17:31:51.461Z,101216.41
2023-03-21T17:34:20.436Z,101211.44
2023-03-21T17:36:50.483Z,101235.91
2023-03-21T17:39:22.744Z,101203.66
2023-03-21T17:41:52.000Z,101198.88
2023-03-21T17:44:21.196Z,101220.94
2023-03-21T17:46:51.748Z,101251.41
2023-03-21T17:49:21.334Z,101243.09
2023-03-21T17:51:51.986Z,101242.97
2023-03-21T17:54:20.361Z,101220.00
2023-03-21T17:56:51.765Z,101253.09
2023-03-21T17:59:20.161Z,101244.38
2023-03-21T18:01:48.689Z,101241.34
2023-03-21T18:04:17.129Z,101259.97
2023-03-21T18:06:45.618Z,101252.16
2023-03-21T18:09:19.878Z,101243.97
2023-03-21T18:11:49.891Z,101223.44
2023-03-21T18:14:25.507Z,101236.53
2023-03-21T18:16:56.277Z,101242.72
2023-03-21T18:19:24.947Z,101241.25
2023-03-21T18:21:53.438Z,101243.13
2023-03-21T18:24:23.204Z,101214.16
2023-03-21T18:26:51.840Z,101223.19
2023-03-21T18:30:50.430Z,101243.94
2023-03-21T18:32:09.654Z,101222.22
2023-03-21T18:34:40.348Z,101132.09
2023-03-21T18:37:13.161Z,101221.03
2023-03-21T18:39:44.525Z,101219.34
2023-03-21T18:42:18.025Z,101246.09
2023-03-21T18:44:49.933Z,101250.03
2023-03-21T18:47:18.844Z,101189.44
2023-03-21T18:50:12.679Z,101249.53
2023-03-21T18:52:36.716Z,101242.03
2023-03-21T18:55:09.019Z,101225.25
2023-03-21T18:57:43.415Z,101182.69
2023-03-21T19:00:22.861Z,101181.13
2023-03-21T19:03:06.410Z,101244.41
2023-03-21T19:05:43.041Z,101209.41
2023-03-21T19:08:14.111Z,101193.88
2023-03-21T19:10:45.245Z,101246.47
2023-03-21T19:13:14.507Z,101110.50
2023-03-21T19:15:54.067Z,101143.22
2023-03-21T19:18:41.524Z,101248.00
2023-03-21T19:21:12.460Z,101141.78
2023-03-21T19:24:16.299Z,101212.38
2023-03-21T19:26:33.013Z,101264.78
2023-03-21T19:29:01.464Z,101258.69
2023-03-21T19:31:29.908Z,101142.00
2023-03-21T19:34:05.604Z,101246.94
2023-03-21T19:36:34.714Z,101254.13
2023-03-21T19:39:05.047Z,101244.50
2023-03-21T19:41:36.861Z,101251.34
2023-03-21T19:44:08.440Z,101253.97
2023-03-21T19:46:36.931Z,101241.66
2023-03-21T19:49:07.152Z,101183.56
2023-03-21T19:51:35.988Z,101212.66
2023-03-21T19:54:09.628Z,101105.72
2023-03-21T19:56:47.763Z,101177.00
2023-03-21T19:59:17.420Z,101237.31
2023-03-21T20:01:48.943Z,101176.44
2023-03-21T20:04:18.640Z,101237.16
2023-03-21T20:06:47.834Z,101120.53
2023-03-21T20:09:50.750Z,101212.97
2023-03-21T20:12:08.384Z,101224.59
2023-03-21T20:14:37.258Z,101224.72
2023-03-21T20:17:07.122Z,101224.09
2023-03-21T20:19:36.796Z,101215.13
2023-03-21T20:22:20.219Z,101197.94
2023-03-21T20:25:04.821Z,101216.53
2023-03-21T20:27:39.163Z,101201.25
2023-03-21T20:30:20.091Z,101221.44
2023-03-21T20:32:49.551Z,101211.81
2023-03-21T20:35:32.931Z,101081.16
2023-03-21T20:38:13.965Z,101140.28
2023-03-21T20:40:44.120Z,101198.63
2023-03-21T20:44:04.969Z,101200.22
2023-03-21T20:46:04.763Z,101205.84
2023-03-21T20:48:34.449Z,101149.38
2023-03-21T20:52:09.963Z,101105.38
2023-03-21T20:53:59.183Z,100997.53
2023-03-21T20:56:30.569Z,101087.03
2023-03-21T20:59:17.656Z,101076.41
2023-03-21T21:01:54.328Z,101204.16
2023-03-21T21:04:44.099Z,101207.56
2023-03-21T21:07:17.125Z,101144.03
2023-03-21T21:09:46.418Z,101176.75
2023-03-21T21:12:16.443Z,101199.31
2023-03-21T21:14:48.411Z,101144.00
2023-03-21T21:20:20.522Z,101151.00
2023-03-21T21:23:00.004Z,101201.00
2023-03-21T21:25:33.146Z,100994.78
2023-03-21T21:28:03.206Z,101194.16
2023-03-21T21:30:34.799Z,101187.28
2023-03-21T21:33:05.470Z,101195.38
2023-03-21T21:35:39.019Z,101145.16
2023-03-21T21:38:12.815Z,101186.13
2023-03-21T21:40:42.238Z,101144.72
2023-03-21T21:43:12.968Z,101113.34
2023-03-21T21:45:43.604Z,101156.88
2023-03-21T21:48:12.760Z,101184.47
2023-03-21T21:50:43.921Z,101174.38
2023-03-21T21:53:19.160Z,101057.16
2023-03-21T21:55:49.012Z,101127.66
2023-03-21T21:58:21.843Z,101174.41
2023-03-21T22:00:52.170Z,101133.94
2023-03-21T22:03:22.358Z,101111.19
2023-03-21T22:05:51.633Z,101150.94
2023-03-21T22:08:21.394Z,101120.97
2023-03-21T22:10:50.054Z,101165.75
2023-03-21T22:13:18.866Z,101118.63
2023-03-21T22:15:48.633Z,101163.53
2023-03-21T22:18:18.347Z,101145.19
2023-03-21T22:20:47.200Z,101135.91
2023-03-21T22:23:16.133Z,101158.72
2023-03-21T22:25:50.915Z,101120.53
2023-03-21T22:28:23.582Z,101165.03
2023-03-21T22:30:51.919Z,101166.28
2023-03-21T22:33:25.116Z,101063.47
2023-03-21T22:35:56.335Z,101042.31
2023-03-21T22:38:25.518Z,101088.22
2023-03-21T22:40:57.498Z,101102.94
2023-03-21T22:43:26.472Z,101092.59
2023-03-21T22:45:55.941Z,100982.34
2023-03-21T22:48:25.749Z,101145.16
2023-03-21T22:50:54.133Z,101149.25
2023-03-21T22:53:22.564Z,101116.38
2023-03-21T22:55:51.249Z,101116.94
2023-03-21T22:58:20.030Z,101074.69
2023-03-21T23:00:51.921Z,101131.88
2023-03-21T23:03:21.550Z,101132.31
2023-03-21T23:05:51.718Z,101061.09
2023-03-21T23:08:21.436Z,101132.19
2023-03-21T23:10:50.669Z,100995.09
2023-03-21T23:13:19.156Z,101095.13
2023-03-21T23:15:47.621Z,101121.69
2023-03-21T23:18:17.736Z,101126.28
2023-03-21T23:20:49.723Z,101080.41
2023-03-21T23:23:20.079Z,101043.06
2023-03-21T23:25:48.655Z,101117.91
2023-03-21T23:28:17.722Z,101123.31
2023-03-21T23:30:46.137Z,101100.41
2023-03-21T23:35:43.655Z,101108.66
2023-03-21T23:38:12.403Z,100993.00
2023-03-21T23:40:42.401Z,101049.06
2023-03-21T23:43:14.286Z,101110.22
2023-03-21T23:45:42.794Z,100977.88
2023-03-21T23:48:11.535Z,101058.28
2023-03-21T23:50:40.204Z,101106.16
2023-03-21T23:53:09.942Z,101054.41
2023-03-21T23:55:41.619Z,101007.81
2023-03-21T23:58:13.973Z,100965.88
